Shelbyville, Indiana
Current Conditions -  °F | °C
As of 7:53 AM on Thursday 23 Oct 2014 (Local Time) from KGEZ Reporting Station
Moderate Fog Moderate Fog  
Wind Chill: 32°   Ceiling: 200
Heat Index: 32°   Visibility: 0.25mi
Dew Point: 30°   Wind: 3mph
Humidity: 92%   Direction: 90°E
Pressure: 30.25"   Gusts: NA
Location:  39.52°N, 85.78°W
Report Text: KGEZ 231153Z AUTO 09003KT 1/4SM FG VV002 00/M01 A3025 RMK AO2 SLP248 I1001 I6002 T00001011 10028 20000 58003
Loading
Personal Weather Stations






























Interactive Weather Map
Tropical Storm Tracking
New forecast layout! Learn more

10-Day Weather Forecast

Advertisements
Track Severe Weather on mobile